Time;durP1;ratioP1;P1;durP2;ratioP2;P2;SDS_P1;SDS_P2;PMS_P1;PMS_P2;Temp;Humidity;BMP_temperature;BMP_pressure;BME280_temperature;BME280_humidity;BME280_pressure;Samples;Min_cycle;Max_cycle;Signal;HPM_P1;HPM_P2
2022/11/16 00:01:26;;;;;;;2.33;2.23;;;;;;;11.93;100.00;98857.69;5040788;28;20931;-55
2022/11/16 00:03:54;;;;;;;1.23;1.10;;;;;;;11.97;100.00;98845.06;5038715;28;20447;-55
2022/11/16 00:06:22;;;;;;;4.00;3.60;;;;;;;11.90;100.00;98839.22;5043353;28;20426;-55
2022/11/16 00:11:38;;;;;;;2.70;1.70;;;;;;;11.67;100.00;98837.00;5044887;28;20993;-54
2022/11/16 00:14:04;;;;;;;22.93;1.97;;;;;;;11.69;100.00;98843.06;5038566;28;20524;-55
2022/11/16 00:16:31;;;;;;;3.37;3.17;;;;;;;11.74;100.00;98831.22;5039239;28;20495;-55
2022/11/16 00:19:00;;;;;;;2.07;1.90;;;;;;;11.87;100.00;98820.75;5045803;28;20478;-55
2022/11/16 00:21:26;;;;;;;3.70;3.20;;;;;;;11.67;100.00;98816.56;5045364;28;20955;-53
2022/11/16 00:23:53;;;;;;;9.23;1.83;;;;;;;11.77;100.00;98817.72;5045145;28;20973;-55
2022/11/16 00:26:20;;;;;;;3.93;2.83;;;;;;;11.72;100.00;98818.94;5044128;28;20446;-55
2022/11/16 00:28:47;;;;;;;2.10;2.00;;;;;;;11.68;100.00;98817.41;5038650;28;20478;-54
2022/11/16 00:31:14;;;;;;;1.60;1.50;;;;;;;11.61;100.00;98810.69;5038215;28;21050;-55
2022/11/16 00:33:40;;;;;;;1.73;1.63;;;;;;;11.69;100.00;98811.13;5044616;28;20944;-55
2022/11/16 00:36:09;;;;;;;1.60;1.50;;;;;;;11.61;100.00;98811.56;5045155;28;20513;-55
2022/11/16 00:38:36;;;;;;;1.80;1.70;;;;;;;11.54;100.00;98811.06;5039749;28;20486;-55
2022/11/16 00:41:03;;;;;;;2.27;1.60;;;;;;;11.52;100.00;98810.28;5037132;28;20452;-55
2022/11/16 00:43:29;;;;;;;2.27;2.17;;;;;;;11.64;100.00;98816.69;5038273;28;20450;-54
2022/11/16 00:45:56;;;;;;;2.83;2.63;;;;;;;11.63;100.00;98812.31;5037998;28;20485;-55
2022/11/16 00:48:22;;;;;;;2.03;1.93;;;;;;;11.53;100.00;98817.31;5044516;28;20540;-55
2022/11/16 00:50:48;;;;;;;2.27;2.07;;;;;;;11.57;100.00;98813.53;5038118;28;20541;-55
2022/11/16 00:53:18;;;;;;;2.80;2.70;;;;;;;11.62;100.00;98813.28;5043446;28;20505;-55
2022/11/16 00:55:49;;;;;;;2.47;2.33;;;;;;;11.65;100.00;98814.91;5044392;28;20972;-55
2022/11/16 00:58:15;;;;;;;2.50;2.30;;;;;;;11.80;100.00;98816.75;5040606;28;21099;-55
2022/11/16 01:00:42;;;;;;;2.17;2.00;;;;;;;11.86;100.00;98811.06;5037837;28;20536;-55
2022/11/16 01:03:09;;;;;;;5.23;2.13;;;;;;;11.94;100.00;98803.50;5041949;28;20452;-54
2022/11/16 01:05:35;;;;;;;1.50;1.40;;;;;;;12.00;100.00;98815.59;5044627;28;20451;-55
2022/11/16 01:08:02;;;;;;;1.60;1.50;;;;;;;12.04;100.00;98809.97;5040853;28;20939;-55
2022/11/16 01:10:29;;;;;;;1.27;1.17;;;;;;;12.00;100.00;98808.44;5038157;28;20504;-54
2022/11/16 01:12:56;;;;;;;5.70;1.20;;;;;;;11.98;100.00;98802.34;5041653;28;20511;-54
2022/11/16 01:15:25;;;;;;;2.13;1.73;;;;;;;11.95;100.00;98794.56;5044836;28;20430;-55
2022/11/16 01:17:52;;;;;;;2.00;1.23;;;;;;;12.07;100.00;98788.50;5041440;28;20544;-55
2022/11/16 01:20:21;;;;;;;1.10;0.90;;;;;;;12.02;100.00;98795.91;5037745;28;20450;-54
2022/11/16 01:22:48;;;;;;;0.93;0.87;;;;;;;11.92;100.00;98780.53;5047864;28;20508;-54
2022/11/16 01:25:15;;;;;;;2.40;0.93;;;;;;;11.92;100.00;98775.22;5037016;28;20521;-55
2022/11/16 01:27:42;;;;;;;1.43;1.33;;;;;;;11.94;100.00;98781.34;5039810;28;20578;-55
2022/11/16 01:30:11;;;;;;;2.00;1.33;;;;;;;11.92;100.00;98773.41;5044051;28;20857;-54
2022/11/16 01:32:37;;;;;;;0.97;0.90;;;;;;;11.96;100.00;98776.78;5042323;28;20503;-55
2022/11/16 01:35:05;;;;;;;6.83;2.90;;;;;;;11.77;100.00;98775.13;5037145;28;20451;-54
2022/11/16 01:37:32;;;;;;;2.07;1.50;;;;;;;11.80;100.00;98779.47;5038664;28;20503;-55
2022/11/16 01:39:58;;;;;;;1.70;1.53;;;;;;;11.76;100.00;98777.88;5043639;28;20455;-55
2022/11/16 01:42:27;;;;;;;1.90;1.80;;;;;;;11.75;100.00;98776.16;5030819;28;20448;-55
2022/11/16 01:44:58;;;;;;;1.03;1.00;;;;;;;11.67;100.00;98771.31;5043800;28;20948;-54
2022/11/16 01:47:24;;;;;;;2.07;1.90;;;;;;;11.69;100.00;98776.53;5036734;28;20549;-55
2022/11/16 01:49:56;;;;;;;1.93;1.80;;;;;;;11.71;100.00;98769.31;5023927;28;21019;-55
2022/11/16 01:52:28;;;;;;;2.30;1.40;;;;;;;11.57;100.00;98778.94;5039415;28;20972;-55
2022/11/16 01:54:54;;;;;;;2.47;2.27;;;;;;;11.53;100.00;98774.75;5038281;28;20430;-55
2022/11/16 01:57:25;;;;;;;2.50;2.00;;;;;;;11.65;100.00;98778.53;5036715;28;20553;-55
2022/11/16 01:59:55;;;;;;;2.03;1.73;;;;;;;11.63;100.00;98777.72;5041584;28;20493;-55
2022/11/16 02:02:22;;;;;;;2.37;2.27;;;;;;;11.65;100.00;98773.19;5043413;28;20452;-55
2022/11/16 02:04:51;;;;;;;2.27;2.07;;;;;;;11.82;100.00;98777.56;5039597;28;20426;-55
2022/11/16 02:09:52;;;;;;;2.13;2.03;;;;;;;11.79;100.00;98775.97;5036414;28;20471;-56
2022/11/16 02:10:34;;;;;;;2.80;2.60;;;;;;;11.74;100.00;98780.63;5036445;28;20452;-54
2022/11/16 02:14:02;;;;;;;1.57;0.97;;;;;;;12.00;100.00;98781.81;5039607;28;20484;-53
2022/11/16 02:16:47;;;;;;;1.30;1.20;;;;;;;12.13;100.00;98777.47;4960912;28;20490;-54
2022/11/16 02:19:37;;;;;;;2.83;2.63;;;;;;;12.14;100.00;98781.00;4956761;28;20637;-55
2022/11/16 02:22:30;;;;;;;3.80;1.80;;;;;;;12.23;100.00;98776.94;5009630;28;20486;-55
2022/11/16 02:24:56;;;;;;;0.90;0.80;;;;;;;11.94;100.00;98779.53;5036072;28;20475;-54
2022/11/16 02:27:35;;;;;;;3.07;1.43;;;;;;;12.25;100.00;98773.25;5041317;28;20544;-54
2022/11/16 02:30:04;;;;;;;3.23;1.80;;;;;;;12.16;100.00;98777.28;5043306;28;21047;-55
2022/11/16 02:32:37;;;;;;;2.37;2.17;;;;;;;12.29;100.00;98777.44;5039957;28;20425;-55
2022/11/16 02:35:13;;;;;;;8.13;1.73;;;;;;;12.31;100.00;98770.19;5036167;28;20447;-55
2022/11/16 02:37:52;;;;;;;3.17;1.80;;;;;;;12.42;100.00;98770.41;5036821;28;20499;-56
2022/11/16 02:40:22;;;;;;;2.40;1.47;;;;;;;12.27;100.00;98765.16;5024148;28;20932;-55
2022/11/16 02:42:58;;;;;;;2.40;1.03;;;;;;;12.33;100.00;98773.63;5035998;28;20443;-55
2022/11/16 02:45:28;;;;;;;3.07;2.77;;;;;;;12.40;100.00;98782.97;5039304;28;20422;-55
2022/11/16 02:48:02;;;;;;;0.70;0.70;;;;;;;12.39;100.00;98770.59;5039248;28;20540;-56
2022/11/16 02:50:31;;;;;;;2.10;1.20;;;;;;;12.39;100.00;98770.59;5037379;28;20451;-55
2022/11/16 02:52:58;;;;;;;1.90;0.87;;;;;;;12.46;100.00;98768.41;5042779;28;20467;-55
2022/11/16 02:55:27;;;;;;;1.20;1.10;;;;;;;12.46;100.00;98768.41;5041039;28;20841;-55
2022/11/16 02:57:59;;;;;;;1.90;1.80;;;;;;;12.39;100.00;98765.28;5016728;28;20626;-55
2022/11/16 03:00:34;;;;;;;1.03;0.90;;;;;;;12.37;100.00;98763.66;5042632;28;20455;-54
2022/11/16 03:03:11;;;;;;;0.80;0.80;;;;;;;12.28;100.00;98759.72;5041325;28;20974;-55
2022/11/16 03:05:46;;;;;;;0.97;0.97;;;;;;;12.31;100.00;98758.69;5041719;28;20500;-55
2022/11/16 03:08:30;;;;;;;0.70;0.60;;;;;;;12.22;100.00;98757.44;5039380;28;20466;-55
2022/11/16 03:14:06;;;;;;;0.57;0.53;;;;;;;11.93;100.00;98731.69;5035551;28;20803;-55
2022/11/16 03:16:43;;;;;;;0.50;0.40;;;;;;;11.90;100.00;98729.19;5036992;28;20530;-55
2022/11/16 03:19:17;;;;;;;0.80;0.77;;;;;;;11.90;100.00;98730.03;5041794;28;20544;-55
2022/11/16 03:22:08;;;;;;;0.70;0.50;;;;;;;11.90;100.00;98722.06;5042339;28;20853;-54
2022/11/16 03:24:34;;;;;;;0.40;0.37;;;;;;;12.02;100.00;98724.00;5040415;28;20864;-55
2022/11/16 03:27:11;;;;;;;1.70;1.00;;;;;;;11.88;100.00;98737.28;5035062;28;20446;-54
2022/11/16 03:29:56;;;;;;;1.10;0.70;;;;;;;12.03;100.00;98760.31;5036387;28;20562;-54
2022/11/16 03:32:31;;;;;;;0.53;0.40;;;;;;;12.03;100.00;98763.00;5026525;28;20446;-55
2022/11/16 03:35:12;;;;;;;2.10;0.50;;;;;;;12.03;100.00;98772.78;5035391;28;20445;-53
2022/11/16 03:37:40;;;;;;;0.57;0.37;;;;;;;11.93;100.00;98772.50;5037111;28;20503;-53
2022/11/16 03:40:08;;;;;;;0.80;0.73;;;;;;;11.95;100.00;98772.41;5042185;28;20451;-53
2022/11/16 03:42:36;;;;;;;0.80;0.57;;;;;;;12.01;100.00;98764.88;5028940;28;20872;-53
2022/11/16 03:45:03;;;;;;;0.60;0.50;;;;;;;12.20;100.00;98769.13;5041629;28;20462;-53
2022/11/16 03:47:29;;;;;;;0.50;0.40;;;;;;;12.06;100.00;98776.16;5035635;28;20479;-54
2022/11/16 03:49:56;;;;;;;0.57;0.47;;;;;;;12.12;100.00;98783.75;5041413;28;20463;-53
2022/11/16 03:52:22;;;;;;;0.63;0.47;;;;;;;12.02;100.00;98790.56;5042113;28;20454;-52
2022/11/16 03:54:49;;;;;;;0.47;0.40;;;;;;;12.01;100.00;98788.00;5036016;28;20451;-53
2022/11/16 03:57:17;;;;;;;0.80;0.80;;;;;;;12.09;100.00;98786.63;5034738;28;21004;-54
2022/11/16 03:59:44;;;;;;;0.70;0.70;;;;;;;12.32;100.00;98792.38;5040804;28;20463;-54
2022/11/16 04:02:10;;;;;;;0.60;0.50;;;;;;;12.27;100.00;98797.13;5041826;28;20457;-54
2022/11/16 04:24:12;;;;;;;0.53;0.53;;;;;;;11.96;100.00;98790.94;5041478;28;20513;-54
2022/11/16 04:29:28;;;;;;;1.00;0.80;;;;;;;11.89;100.00;98792.22;5043916;28;20450;-54
2022/11/16 04:40:10;;;;;;;0.50;0.50;;;;;;;11.82;100.00;98796.22;5038116;28;20939;-54
2022/11/16 04:42:36;;;;;;;1.17;1.07;;;;;;;11.77;100.00;98809.72;5038583;28;20500;-54
2022/11/16 04:47:05;;;;;;;1.57;0.90;;;;;;;11.83;100.00;98804.09;5044157;28;20582;-53
2022/11/16 04:47:55;;;;;;;0.70;0.70;;;;;;;11.84;100.00;98802.31;5042818;28;21085;-53
2022/11/16 04:50:21;;;;;;;0.50;0.50;;;;;;;11.82;100.00;98807.72;5039857;28;20876;-54
2022/11/16 04:52:48;;;;;;;0.80;0.80;;;;;;;11.72;100.00;98801.16;5044624;28;20979;-54
2022/11/16 04:55:14;;;;;;;0.70;0.70;;;;;;;11.75;100.00;98806.31;5043016;28;20459;-54
2022/11/16 04:57:41;;;;;;;0.60;0.60;;;;;;;11.76;100.00;98801.84;5037576;28;21069;-54
2022/11/16 05:00:08;;;;;;;0.80;0.73;;;;;;;11.84;100.00;98803.16;5039833;28;20452;-54
2022/11/16 05:02:34;;;;;;;0.80;0.40;;;;;;;11.77;100.00;98812.41;5044869;28;20455;-54
2022/11/16 05:05:01;;;;;;;0.40;0.30;;;;;;;11.77;100.00;98808.88;5043008;28;20893;-54
2022/11/16 05:07:27;;;;;;;0.60;0.40;;;;;;;11.81;100.00;98814.00;5037949;28;20822;-53
2022/11/16 05:09:53;;;;;;;15.23;1.10;;;;;;;11.79;100.00;98812.38;5039295;28;20456;-54
2022/11/16 05:12:25;;;;;;;0.73;0.73;;;;;;;11.74;100.00;98820.56;5044367;28;20529;-54
2022/11/16 05:14:53;;;;;;;0.83;0.83;;;;;;;11.69;100.00;98812.00;5043796;28;20790;-53
2022/11/16 05:17:21;;;;;;;0.50;0.30;;;;;;;11.70;100.00;98818.19;5037548;28;20528;-55
2022/11/16 05:22:33;;;;;;;7.87;1.00;;;;;;;11.83;100.00;98819.22;5028843;28;20500;-54
2022/11/16 05:25:00;;;;;;;1.20;0.87;;;;;;;11.80;100.00;98817.59;5037144;28;20456;-54
2022/11/16 05:27:27;;;;;;;0.90;0.90;;;;;;;11.91;100.00;98819.63;5041640;28;20561;-54
2022/11/16 05:29:54;;;;;;;2.50;0.90;;;;;;;12.09;100.00;98818.56;5043792;28;20455;-55
2022/11/16 05:32:22;;;;;;;0.63;0.60;;;;;;;11.93;100.00;98823.09;5040173;28;20459;-54
2022/11/16 05:34:49;;;;;;;1.60;1.50;;;;;;;11.86;100.00;98825.22;5037417;28;20455;-53
2022/11/16 05:37:16;;;;;;;2.20;2.00;;;;;;;11.84;100.00;98818.28;5040685;28;20499;-55
2022/11/16 05:39:42;;;;;;;1.60;1.50;;;;;;;11.82;100.00;98821.03;5043938;28;20957;-54
2022/11/16 05:42:09;;;;;;;1.40;1.30;;;;;;;11.80;100.00;98814.94;5030614;28;20452;-54
2022/11/16 05:44:35;;;;;;;1.87;1.67;;;;;;;11.83;100.00;98817.41;5044099;28;20476;-54
2022/11/16 05:47:02;;;;;;;1.63;1.17;;;;;;;11.80;100.00;98803.44;5036552;28;20464;-55
2022/11/16 05:49:28;;;;;;;1.53;1.43;;;;;;;11.74;100.00;98809.06;5043488;28;20460;-54
2022/11/16 05:51:55;;;;;;;2.80;0.90;;;;;;;11.79;100.00;98807.03;5040756;28;20429;-55
2022/11/16 05:54:26;;;;;;;2.10;2.00;;;;;;;11.73;100.00;98812.66;5037160;28;20454;-54
2022/11/16 05:56:53;;;;;;;2.10;2.00;;;;;;;11.65;100.00;98822.88;5038764;28;20452;-55
2022/11/16 05:59:21;;;;;;;2.40;2.20;;;;;;;11.64;100.00;98822.03;5043373;28;21023;-55
2022/11/16 06:01:48;;;;;;;12.13;2.00;;;;;;;11.69;100.00;98822.63;5042161;28;20451;-54
2022/11/16 06:04:15;;;;;;;1.13;1.03;;;;;;;11.54;100.00;98821.69;5036408;28;20461;-53
2022/11/16 06:06:42;;;;;;;1.23;1.23;;;;;;;11.53;100.00;98824.47;5030904;28;20479;-54
2022/11/16 06:09:10;;;;;;;1.47;1.37;;;;;;;11.61;100.00;98818.69;5036547;28;20471;-53
2022/11/16 06:11:37;;;;;;;0.87;0.80;;;;;;;11.43;100.00;98817.91;5036632;28;20898;-55
2022/11/16 06:14:04;;;;;;;0.97;0.97;;;;;;;11.44;100.00;98828.47;5043118;28;20451;-55
2022/11/16 06:16:30;;;;;;;0.90;0.70;;;;;;;11.40;100.00;98831.41;5042890;28;20455;-54
2022/11/16 06:18:58;;;;;;;1.57;1.47;;;;;;;11.33;100.00;98835.34;5035868;28;20965;-53
2022/11/16 06:21:24;;;;;;;0.80;0.73;;;;;;;11.33;100.00;98841.50;5036822;28;20798;-55
2022/11/16 06:23:51;;;;;;;1.13;1.07;;;;;;;11.31;100.00;98854.03;5042994;28;20455;-55
2022/11/16 06:26:17;;;;;;;1.53;1.07;;;;;;;11.30;100.00;98849.66;5042835;28;20454;-54
2022/11/16 06:28:43;;;;;;;3.03;1.17;;;;;;;11.29;100.00;98847.94;5035966;28;21058;-54
2022/11/16 06:31:10;;;;;;;0.50;0.40;;;;;;;11.24;100.00;98860.66;5036018;28;20972;-55
2022/11/16 06:33:36;;;;;;;0.50;0.50;;;;;;;11.24;100.00;98861.50;5022819;28;20455;-54
2022/11/16 06:36:03;;;;;;;6.20;0.77;;;;;;;11.11;100.00;98863.13;5036370;28;20455;-54
2022/11/16 06:38:29;;;;;;;1.07;0.57;;;;;;;11.03;100.00;98865.31;5023206;28;20503;-55
2022/11/16 06:40:57;;;;;;;4.03;1.27;;;;;;;11.02;100.00;98865.41;5035725;28;20456;-55
2022/11/16 06:43:25;;;;;;;12.23;1.80;;;;;;;10.84;100.00;98867.25;5036556;28;20459;-54
2022/11/16 06:45:54;;;;;;;1.27;1.17;;;;;;;10.78;100.00;98879.03;5035757;28;20451;-54
2022/11/16 06:48:21;;;;;;;1.07;0.67;;;;;;;10.80;100.00;98874.50;5042235;28;20475;-55
2022/11/16 06:50:48;;;;;;;0.70;0.70;;;;;;;10.69;100.00;98882.19;5035751;28;20988;-54
2022/11/16 06:53:15;;;;;;;0.70;0.70;;;;;;;10.64;100.00;98879.75;5041593;28;20456;-54
2022/11/16 06:55:42;;;;;;;1.27;1.03;;;;;;;10.63;100.00;98883.34;5042551;28;21041;-54
2022/11/16 06:58:08;;;;;;;1.03;0.93;;;;;;;10.61;100.00;98885.22;5036841;28;20498;-54
2022/11/16 07:00:35;;;;;;;0.60;0.60;;;;;;;10.57;100.00;98889.00;5034154;28;20459;-54
2022/11/16 07:03:02;;;;;;;0.90;0.73;;;;;;;10.41;100.00;98901.31;5041351;28;20459;-54
2022/11/16 07:05:30;;;;;;;0.40;0.40;;;;;;;10.39;100.00;98903.19;5042281;28;20447;-54
2022/11/16 07:07:56;;;;;;;0.80;0.80;;;;;;;10.61;100.00;98905.63;5037586;28;20872;-54
2022/11/16 07:10:24;;;;;;;2.20;1.23;;;;;;;10.92;100.00;98908.41;5035237;28;20529;-55
2022/11/16 07:12:50;;;;;;;0.40;0.30;;;;;;;11.02;100.00;98907.94;5040519;28;20824;-54
2022/11/16 07:15:18;;;;;;;1.20;0.50;;;;;;;11.08;100.00;98897.81;5041953;28;20454;-55
2022/11/16 07:17:44;;;;;;;1.17;1.07;;;;;;;11.22;100.00;98910.38;5037403;28;20914;-55
2022/11/16 07:20:11;;;;;;;0.93;0.93;;;;;;;11.26;100.00;98910.16;5035553;28;20463;-55
2022/11/16 07:22:37;;;;;;;0.50;0.40;;;;;;;11.24;100.00;98913.84;5046223;28;20457;-54
2022/11/16 07:25:04;;;;;;;0.67;0.67;;;;;;;11.20;100.00;98918.44;5035474;28;20941;-54
2022/11/16 07:27:31;;;;;;;0.70;0.70;;;;;;;11.27;100.00;98922.50;5039438;28;20511;-55
2022/11/16 07:29:57;;;;;;;1.43;1.07;;;;;;;11.42;100.00;98928.81;5042319;28;20455;-54
2022/11/16 07:32:23;;;;;;;4.53;0.50;;;;;;;11.44;100.00;98926.94;5038250;28;20508;-53
2022/11/16 07:34:50;;;;;;;7.93;0.40;;;;;;;11.48;100.00;98936.44;5035546;28;20933;-55
2022/11/16 07:37:16;;;;;;;0.40;0.40;;;;;;;11.52;100.00;98935.38;5039568;28;20475;-54
2022/11/16 07:39:42;;;;;;;0.50;0.50;;;;;;;11.57;100.00;98943.09;5042039;28;20519;-54
2022/11/16 07:42:10;;;;;;;0.50;0.40;;;;;;;11.46;100.00;98943.66;5028557;28;20455;-55
2022/11/16 07:44:37;;;;;;;6.63;1.37;;;;;;;11.49;100.00;98945.28;5042267;28;20458;-55
2022/11/16 07:47:04;;;;;;;0.60;0.30;;;;;;;11.55;100.00;98950.31;5034815;28;20466;-54
2022/11/16 07:49:31;;;;;;;0.73;0.47;;;;;;;11.52;100.00;98955.78;5041767;28;20580;-55
2022/11/16 07:51:57;;;;;;;9.23;0.80;;;;;;;11.64;100.00;98959.56;5041410;28;20454;-54
2022/11/16 07:54:24;;;;;;;5.13;0.50;;;;;;;11.40;100.00;98957.31;5039090;28;20451;-55
2022/11/16 07:56:50;;;;;;;0.50;0.40;;;;;;;11.44;100.00;98958.00;5041296;28;20455;-55
2022/11/16 07:59:20;;;;;;;1.07;0.50;;;;;;;11.43;100.00;98961.59;5045578;28;20741;-55
2022/11/16 08:01:47;;;;;;;1.37;0.60;;;;;;;11.61;100.00;98960.59;5043952;28;20455;-55
2022/11/16 08:04:14;;;;;;;0.40;0.30;;;;;;;11.44;100.00;98964.16;5039376;28;20458;-55
2022/11/16 08:06:40;;;;;;;1.43;1.00;;;;;;;11.38;100.00;98967.19;5040614;28;20501;-54
2022/11/16 08:09:08;;;;;;;0.70;0.50;;;;;;;11.40;100.00;98959.09;5045380;28;20454;-55
2022/11/16 08:11:34;;;;;;;9.37;1.00;;;;;;;11.27;100.00;98973.06;5043994;28;20917;-54
2022/11/16 08:14:01;;;;;;;0.40;0.30;;;;;;;11.23;100.00;98971.47;5038570;28;20454;-54
2022/11/16 08:16:27;;;;;;;5.97;1.07;;;;;;;11.25;100.00;98972.28;5039899;28;20957;-54
2022/11/16 08:18:54;;;;;;;1.77;0.90;;;;;;;11.26;100.00;98971.34;5045176;28;20495;-54
2022/11/16 08:21:20;;;;;;;0.73;0.70;;;;;;;11.29;100.00;98972.97;5044348;28;20450;-55
2022/11/16 08:23:46;;;;;;;2.57;1.70;;;;;;;11.44;100.00;98977.47;5042836;28;20470;-54
2022/11/16 08:26:18;;;;;;;4.20;0.60;;;;;;;11.41;100.00;98967.00;5044165;28;20451;-53
2022/11/16 08:28:46;;;;;;;1.90;0.60;;;;;;;11.45;100.00;98968.56;5047048;23;20502;-61
2022/11/16 08:31:19;;;;;;;10.57;0.93;;;;;;;11.55;100.00;98977.78;5032181;28;20505;-60
2022/11/16 08:33:46;;;;;;;0.77;0.43;;;;;;;11.64;100.00;98971.06;5019710;28;20451;-60
2022/11/16 08:36:16;;;;;;;12.43;0.93;;;;;;;11.64;100.00;98967.56;5031161;28;20466;-61
2022/11/16 08:38:43;;;;;;;1.03;0.93;;;;;;;11.64;100.00;98972.88;5011825;28;20500;-60
2022/11/16 08:41:10;;;;;;;1.03;0.93;;;;;;;11.71;100.00;98972.47;5028909;28;20455;-61
2022/11/16 08:43:38;;;;;;;2.10;0.60;;;;;;;11.74;100.00;98984.75;5034189;28;20871;-60
2022/11/16 08:46:09;;;;;;;5.00;0.57;;;;;;;11.67;100.00;98988.69;5025035;28;20451;-60
2022/11/16 08:48:36;;;;;;;3.53;0.70;;;;;;;11.73;100.00;98989.22;5018680;28;20982;-61
2022/11/16 08:51:11;;;;;;;1.80;1.70;;;;;;;12.00;100.00;98984.22;5024697;28;20433;-60
2022/11/16 08:53:47;;;;;;;1.83;1.20;;;;;;;11.84;100.00;98984.22;5014905;28;21012;-60
2022/11/16 08:56:16;;;;;;;4.73;3.27;;;;;;;11.84;100.00;98984.22;5017979;28;20486;-61
2022/11/16 08:58:45;;;;;;;1.53;1.43;;;;;;;11.90;100.00;98990.13;5000669;28;20999;-61
2022/11/16 09:01:17;;;;;;;24.93;2.67;;;;;;;11.82;100.00;98995.88;5018496;28;20938;-61
2022/11/16 09:03:44;;;;;;;1.50;0.67;;;;;;;11.85;100.00;98995.72;5015833;28;20539;-60
2022/11/16 09:06:11;;;;;;;6.53;1.27;;;;;;;11.85;100.00;99003.69;5019475;28;20451;-60
2022/11/16 09:08:39;;;;;;;7.83;1.53;;;;;;;11.82;100.00;99003.88;5016522;28;20469;-60
2022/11/16 09:11:08;;;;;;;10.53;2.70;;;;;;;11.86;100.00;98997.44;5019645;28;20447;-60
2022/11/16 09:13:35;;;;;;;0.60;0.50;;;;;;;11.91;100.00;99000.69;5016125;28;20921;-60
2022/11/16 09:16:01;;;;;;;1.17;1.07;;;;;;;11.82;100.00;98996.75;5019632;28;20456;-60
2022/11/16 09:18:29;;;;;;;0.50;0.50;;;;;;;11.60;100.00;98997.94;5015792;28;20500;-60
2022/11/16 09:20:56;;;;;;;5.60;1.40;;;;;;;11.62;100.00;98993.41;5020010;28;20469;-60
2022/11/16 09:23:22;;;;;;;0.60;0.53;;;;;;;11.66;100.00;98987.00;5025902;28;20488;-60
2022/11/16 09:25:51;;;;;;;3.70;0.90;;;;;;;11.75;100.00;98986.47;5011469;28;20452;-60
2022/11/16 09:28:19;;;;;;;7.03;0.60;;;;;;;11.84;100.00;98988.66;5023998;28;20539;-60
2022/11/16 09:30:48;;;;;;;9.63;0.90;;;;;;;11.89;100.00;98977.75;5010909;28;20453;-60
2022/11/16 09:33:15;;;;;;;0.60;0.40;;;;;;;11.89;100.00;98991.06;5024250;28;20427;-60
2022/11/16 09:35:42;;;;;;;0.50;0.30;;;;;;;11.92;100.00;98994.41;5010796;28;20868;-60
2022/11/16 09:38:08;;;;;;;4.93;1.37;;;;;;;12.06;100.00;98994.56;5024178;28;20431;-60
2022/11/16 09:40:45;;;;;;;5.20;1.67;;;;;;;12.23;100.00;98990.06;5010859;28;20456;-60
2022/11/16 09:43:29;;;;;;;2.20;0.90;;;;;;;12.36;100.00;98999.09;5036881;28;20427;-60
2022/11/16 09:46:25;;;;;;;3.23;0.60;;;;;;;12.60;100.00;98999.47;5024027;28;20452;-60
2022/11/16 09:48:57;;;;;;;0.60;0.40;;;;;;;12.79;100.00;99001.97;5000155;28;20539;-60
2022/11/16 09:51:28;;;;;;;1.00;0.53;;;;;;;13.04;100.00;99004.91;5023835;28;20499;-60
2022/11/16 09:54:01;;;;;;;0.77;0.77;;;;;;;13.43;100.00;98998.13;5014483;28;20951;-60
2022/11/16 09:56:31;;;;;;;3.10;1.07;;;;;;;13.45;100.00;99006.94;5010714;28;20870;-60
2022/11/16 09:59:01;;;;;;;18.00;1.30;;;;;;;13.64;100.00;99000.34;5023727;28;20552;-60
2022/11/16 10:01:33;;;;;;;2.50;0.83;;;;;;;13.37;100.00;99012.72;5019187;28;20452;-60
2022/11/16 10:04:10;;;;;;;1.47;1.03;;;;;;;13.58;100.00;99005.22;5016706;28;20426;-60
2022/11/16 10:07:06;;;;;;;2.67;2.20;;;;;;;13.66;100.00;99007.41;5021751;28;20828;-60
2022/11/16 10:09:34;;;;;;;2.80;1.17;;;;;;;13.23;100.00;98994.03;5017376;28;20454;-60
2022/11/16 10:12:17;;;;;;;5.13;0.77;;;;;;;13.37;100.00;99006.53;5014987;28;20883;-60
2022/11/16 10:15:22;;;;;;;1.63;0.80;;;;;;;13.32;100.00;99002.34;5021025;28;20430;-60
2022/11/16 10:18:27;;;;;;;2.30;0.70;;;;;;;13.54;100.00;98993.84;5019785;28;20944;-60
2022/11/16 10:21:15;;;;;;;1.17;0.43;;;;;;;13.58;100.00;98986.53;5017207;28;20460;-60
2022/11/16 10:24:18;;;;;;;4.97;1.30;;;;;;;13.38;100.00;98987.75;5022508;28;20476;-60
2022/11/16 10:26:45;;;;;;;1.47;1.10;;;;;;;13.53;100.00;98975.25;5013247;28;20455;-60
2022/11/16 10:29:35;;;;;;;3.80;1.80;;;;;;;13.83;100.00;98977.84;5019366;28;20481;-60
2022/11/16 10:32:04;;;;;;;1.53;1.10;;;;;;;13.63;100.00;98976.41;5016511;28;20456;-60
2022/11/16 10:34:50;;;;;;;2.97;0.90;;;;;;;13.52;100.00;98968.22;5016006;28;20846;-60
2022/11/16 10:37:16;;;;;;;0.70;0.60;;;;;;;13.39;100.00;98965.44;5019101;28;20452;-60
2022/11/16 10:39:46;;;;;;;0.50;0.50;;;;;;;13.60;100.00;98964.13;5013340;28;20495;-60
2022/11/16 10:42:25;;;;;;;0.93;0.80;;;;;;;13.47;100.00;98962.31;5031203;28;20421;-60
2022/11/16 10:45:02;;;;;;;6.23;0.90;;;;;;;13.62;100.00;98962.22;5017312;28;20452;-60
2022/11/16 10:47:43;;;;;;;6.70;1.60;;;;;;;13.68;100.00;98955.63;5022410;28;20483;-60
2022/11/16 10:50:41;;;;;;;6.70;0.50;;;;;;;13.74;100.00;98955.25;5018883;28;20439;-60
2022/11/16 10:53:13;;;;;;;4.63;1.93;;;;;;;13.74;100.00;98952.59;5013506;28;20456;-60
2022/11/16 10:55:39;;;;;;;0.30;0.20;;;;;;;14.18;100.00;98941.72;5010529;28;20731;-60
2022/11/16 10:58:06;;;;;;;2.83;2.07;;;;;;;14.23;100.00;98936.91;5021266;28;20843;-60
2022/11/16 11:00:43;;;;;;;6.47;0.50;;;;;;;14.15;100.00;98938.38;5010767;28;20492;-60
2022/11/16 11:03:10;;;;;;;4.07;1.13;;;;;;;14.35;99.96;98939.75;5019897;28;20456;-60
2022/11/16 11:05:48;;;;;;;6.00;0.83;;;;;;;14.27;99.78;98939.41;5012322;28;20504;-60
2022/11/16 11:08:29;;;;;;;13.80;0.53;;;;;;;14.25;99.81;98947.50;5017951;28;20472;-60
2022/11/16 11:12:36;;;;;;;6.93;0.70;;;;;;;13.92;100.00;98937.19;5015561;28;21008;-60
2022/11/16 11:14:16;;;;;;;3.57;2.07;;;;;;;13.95;100.00;98937.00;5012185;28;20957;-60
2022/11/16 11:16:42;;;;;;;2.00;1.33;;;;;;;13.95;100.00;98934.31;5019460;28;20434;-61
2022/11/16 11:19:28;;;;;;;2.17;0.53;;;;;;;13.97;100.00;98937.75;5008929;28;20475;-59
2022/11/16 11:21:57;;;;;;;1.83;0.50;;;;;;;14.15;100.00;98925.03;5005351;28;20937;-60
2022/11/16 11:24:25;;;;;;;1.03;0.97;;;;;;;14.22;99.09;98929.84;5017950;28;20475;-60
2022/11/16 11:27:12;;;;;;;4.77;3.33;;;;;;;14.41;98.09;98924.19;5015952;28;20884;-60
2022/11/16 11:29:41;;;;;;;6.03;0.70;;;;;;;14.55;97.96;98925.09;5014413;28;20495;-60
2022/11/16 11:32:16;;;;;;;2.50;0.50;;;;;;;14.78;97.22;98925.25;5017508;28;20455;-60
2022/11/16 11:34:52;;;;;;;4.30;1.97;;;;;;;15.01;95.84;98918.34;5012528;28;20466;-60
2022/11/16 11:37:28;;;;;;;1.17;0.50;;;;;;;15.01;94.88;98926.38;5019369;28;20455;-60
2022/11/16 11:40:04;;;;;;;1.13;0.50;;;;;;;15.03;94.30;98924.44;5010100;28;20496;-60
2022/11/16 11:42:31;;;;;;;3.13;1.73;;;;;;;15.10;93.69;98928.44;5035145;28;20428;-60
2022/11/16 11:45:01;;;;;;;0.80;0.80;;;;;;;14.97;94.81;98924.88;5015732;28;20455;-60
2022/11/16 11:47:38;;;;;;;1.43;0.50;;;;;;;14.78;95.16;98914.56;5021714;28;20988;-60
2022/11/16 11:50:51;;;;;;;1.80;1.03;;;;;;;14.62;95.16;98923.72;5020213;28;20896;-60
2022/11/16 11:53:32;;;;;;;2.30;0.70;;;;;;;14.62;93.75;98921.06;5020176;28;20511;-60
2022/11/16 11:55:59;;;;;;;3.40;1.20;;;;;;;14.59;94.74;98913.25;5012664;28;20505;-60
2022/11/16 11:58:32;;;;;;;4.87;1.00;;;;;;;14.73;95.04;98911.34;5017484;28;20468;-60
2022/11/16 12:01:20;;;;;;;7.20;2.60;;;;;;;14.56;95.71;98910.78;5013575;28;20491;-60
2022/11/16 12:04:10;;;;;;;4.67;1.03;;;;;;;14.75;95.29;98913.91;5013648;28;20476;-60
2022/11/16 12:07:06;;;;;;;4.00;0.73;;;;;;;14.51;93.80;98890.53;5019784;28;20915;-60
2022/11/16 12:09:52;;;;;;;4.67;0.63;;;;;;;14.39;94.91;98901.16;5017311;28;21063;-60
2022/11/16 12:12:27;;;;;;;3.27;1.67;;;;;;;14.24;97.18;98893.19;5010276;28;20830;-60
2022/11/16 12:15:12;;;;;;;1.70;0.73;;;;;;;14.43;95.82;98890.16;5021539;28;20429;-60
2022/11/16 12:17:48;;;;;;;1.17;1.13;;;;;;;14.42;96.20;98896.47;5019927;28;20460;-60
2022/11/16 12:20:27;;;;;;;0.50;0.30;;;;;;;14.58;96.00;98888.31;5012418;28;20949;-60
2022/11/16 12:23:05;;;;;;;3.20;0.40;;;;;;;14.95;94.43;98875.97;5025347;28;20451;-60
2022/11/16 12:25:39;;;;;;;0.73;0.60;;;;;;;14.92;93.43;98876.16;5021428;28;20522;-60